Little Lake, Michigan
Current Conditions -  °F | °C
As of 4:50 PM on Wednesday 28 Jan 2015 (Local Time) from KSAW Reporting Station
Broken Clouds Broken Clouds  
Wind Chill: 17°   Ceiling: 7500
Heat Index: 28°   Visibility: 10mi
Dew Point: 21°   Wind: 16mph
Humidity: 74%   Direction: 190°S
Pressure: 29.95"   Gusts: NA
Location:  46.29°N, 87.34°W
Report Text: KSAW 282150Z 19014KT 10SM BKN075 M02/M06 A2995
Loading
Personal Weather Stations






























Interactive Weather Map New forecast layout! Learn more

10-Day Weather Forecast

Advertisements
Track Severe Weather on mobile